Station Historical Data
 
Daily Summary for January 20, 2018 Units:  English    Metric   Both
« Previous Day
Next Day »
Daily Weekly Monthly Yearly Custom
  Current: High: Low: Average:
Temperature: 43.9 °F 58.6 °F 28.3 °F 42.9 °F
Dew Point: 36.8 °F 38.2 °F 13.9 °F 26.4 °F
Humidity: 76% 76% 36% 53%
Wind Speed: 0.0mph 2.0mph 0.0mph 0.1mph
Wind Gust: 0.0mph 6.0mph - -
WindCalm - - SE
Pressure: 30.55 in 30.60 in 30.51 in -
Precipitation: 0.00 in      
Historical Graphs
 
 
Tabular Data for January 20, 2018
Time Temperature Dew Point Pressure Wind Wind Speed Wind Gust Humidity Rainfall Rate (Hourly) Conditions
00:04 31.6 °F 14.6 °F 30.56 in Calm     49% 0.00 in CLR
00:09 31.8 °F 14.3 °F 30.56 in Calm     48% 0.00 in CLR
00:15 31.8 °F 13.9 °F 30.56 in Calm     47% 0.00 in CLR
00:19 32.1 °F 14.6 °F 30.56 in Calm     48% 0.00 in CLR
00:24 32.5 °F 14.5 °F 30.56 in Calm     47% 0.00 in CLR
00:34 32.0 °F 14.0 °F 30.56 in Calm     47% 0.00 in CLR
00:39 31.8 °F 14.3 °F 30.56 in Calm   1.0 mph 48% 0.00 in CLR
00:45 32.0 °F 15.0 °F 30.56 in Calm     49% 0.00 in CLR
00:50 31.8 °F 14.8 °F 30.56 in Calm     49% 0.00 in CLR
00:54 31.8 °F 15.3 °F 30.56 in Calm     50% 0.00 in CLR
01:05 31.4 °F 15.3 °F 30.56 in Calm     51% 0.00 in CLR
01:10 31.2 °F 16.5 °F 30.56 in Calm     54% 0.00 in CLR
01:15 31.1 °F 14.1 °F 30.56 in Calm     49% 0.00 in CLR
01:20 31.0 °F 15.4 °F 30.56 in Calm     52% 0.00 in CLR
01:25 31.1 °F 15.9 °F 30.56 in Calm     53% 0.00 in CLR
01:34 30.6 °F 15.0 °F 30.56 in Calm     52% 0.00 in CLR
01:39 30.6 °F 15.0 °F 30.56 in Calm     52% 0.00 in CLR
01:45 31.1 °F 14.1 °F 30.56 in Calm     49% 0.00 in CLR
01:50 31.5 °F 15.4 °F 30.56 in Calm     51% 0.00 in CLR
01:54 31.4 °F 15.3 °F 30.55 in Calm     51% 0.00 in CLR
02:05 32.0 °F 15.9 °F 30.55 in Calm   1.0 mph 51% 0.00 in CLR
02:09 31.9 °F 16.2 °F 30.55 in Calm     52% 0.00 in CLR
02:15 31.6 °F 16.0 °F 30.55 in Calm     52% 0.00 in CLR
02:25 31.0 °F 16.7 °F 30.56 in Calm     55% 0.00 in CLR
02:35 30.9 °F 16.2 °F 30.56 in Calm     54% 0.00 in CLR
02:39 30.9 °F 15.3 °F 30.56 in Calm     52% 0.00 in CLR
02:45 31.0 °F 16.3 °F 30.57 in Calm     54% 0.00 in CLR
02:50 30.9 °F 17.0 °F 30.57 in Calm     56% 0.00 in CLR
03:05 30.6 °F 17.2 °F 30.57 in Calm     57% 0.00 in CLR
03:10 30.4 °F 17.4 °F 30.57 in Calm     58% 0.00 in CLR
03:15 30.1 °F 16.7 °F 30.57 in Calm     57% 0.00 in CLR
03:20 29.8 °F 16.0 °F 30.57 in Calm     56% 0.00 in CLR
03:25 29.6 °F 16.6 °F 30.57 in Calm     58% 0.00 in CLR
03:35 29.2 °F 17.0 °F 30.57 in Calm     60% 0.00 in CLR
03:40 29.0 °F 17.2 °F 30.57 in Calm     61% 0.00 in CLR
03:50 28.8 °F 17.4 °F 30.56 in Calm     62% 0.00 in CLR
03:55 28.7 °F 17.3 °F 30.57 in Calm     62% 0.00 in CLR
04:05 28.6 °F 18.7 °F 30.57 in Calm     66% 0.00 in CLR
04:10 28.6 °F 19.0 °F 30.57 in Calm     67% 0.00 in CLR
04:15 28.5 °F 18.6 °F 30.57 in Calm     66% 0.00 in CLR
04:25 28.3 °F 18.7 °F 30.57 in Calm     67% 0.00 in CLR
04:35 28.7 °F 18.0 °F 30.57 in Calm     64% 0.00 in CLR
04:40 28.6 °F 17.2 °F 30.57 in Calm     62% 0.00 in CLR
04:45 28.5 °F 17.2 °F 30.57 in Calm     62% 0.00 in CLR
04:50 28.9 °F 17.5 °F 30.57 in Calm     62% 0.00 in CLR
04:55 29.0 °F 17.2 °F 30.57 in Calm     61% 0.00 in CLR
05:05 28.9 °F 16.8 °F 30.56 in Calm     60% 0.00 in CLR
05:10 29.0 °F 16.8 °F 30.56 in Calm     60% 0.00 in CLR
05:15 29.1 °F 16.9 °F 30.56 in Calm     60% 0.00 in CLR
05:25 29.0 °F 16.9 °F 30.56 in Calm     60% 0.00 in CLR
05:35 29.5 °F 16.5 °F 30.57 in Calm     58% 0.00 in CLR
05:40 29.6 °F 17.0 °F 30.57 in Calm     59% 0.00 in CLR
05:45 29.6 °F 17.4 °F 30.57 in Calm     60% 0.00 in CLR
05:55 30.0 °F 17.8 °F 30.57 in Calm     60% 0.00 in CLR
06:05 30.4 °F 17.8 °F 30.57 in Calm     59% 0.00 in SCT
06:10 30.5 °F 17.1 °F 30.57 in Calm     57% 0.00 in SCT
06:15 30.6 °F 17.6 °F 30.56 in Calm     58% 0.00 in SCT
06:20 30.8 °F 17.7 °F 30.56 in Calm     58% 0.00 in SCT
06:35 31.7 °F 18.2 °F 30.56 in Calm     57% 0.00 in SCT
06:40 31.8 °F 18.7 °F 30.56 in Calm     58% 0.00 in SCT
06:45 32.1 °F 18.1 °F 30.56 in Calm     56% 0.00 in SCT
06:50 32.4 °F 19.6 °F 30.56 in Calm   1.0 mph 59% 0.00 in SCT
07:05 32.7 °F 21.8 °F 30.56 in Calm     64% 0.00 in BKN
07:10 32.5 °F 21.3 °F 30.56 in Calm   1.0 mph 63% 0.00 in BKN
07:15 32.5 °F 21.6 °F 30.56 in Calm     64% 0.00 in BKN
07:20 32.5 °F 21.6 °F 30.56 in Calm     64% 0.00 in BKN
07:25 32.5 °F 22.0 °F 30.56 in Calm     65% 0.00 in BKN
07:35 32.4 °F 21.9 °F 30.56 in Calm     65% 0.00 in BKN
07:40 32.4 °F 21.9 °F 30.57 in Calm     65% 0.00 in BKN
07:45 32.4 °F 20.8 °F 30.57 in Calm   1.0 mph 62% 0.00 in BKN
07:50 32.5 °F 20.9 °F 30.56 in Calm   1.0 mph 62% 0.00 in BKN
07:55 32.5 °F 21.3 °F 30.56 in Calm     63% 0.00 in BKN
08:05 32.5 °F 20.9 °F 30.57 in Calm     62% 0.00 in BKN
08:10 32.5 °F 21.3 °F 30.57 in Calm   1.0 mph 63% 0.00 in BKN
08:15 32.5 °F 20.6 °F 30.57 in Calm   1.0 mph 61% 0.00 in BKN
08:20 32.7 °F 20.7 °F 30.57 in Calm   1.0 mph 61% 0.00 in BKN
08:35 33.4 °F 21.8 °F 30.57 in Calm     62% 0.00 in BKN
08:40 33.7 °F 22.1 °F 30.58 in Calm   1.0 mph 62% 0.00 in BKN
08:45 34.3 °F 22.6 °F 30.58 in Calm   1.0 mph 62% 0.00 in BKN
08:50 34.7 °F 23.4 °F 30.58 in Calm     63% 0.00 in BKN
09:04 36.3 °F 24.5 °F 30.58 in Calm   1.0 mph 62% 0.00 in BKN
09:10 36.8 °F 24.2 °F 30.58 in Calm   1.0 mph 60% 0.00 in BKN
09:20 38.5 °F 22.3 °F 30.59 in Calm   1.0 mph 52% 0.00 in BKN
09:25 39.2 °F 22.1 °F 30.59 in Calm   1.0 mph 50% 0.00 in BKN
09:35 40.4 °F 20.7 °F 30.59 in Calm   1.0 mph 45% 0.00 in BKN
09:40 40.9 °F 22.2 °F 30.59 in Calm     47% 0.00 in BKN
09:45 41.5 °F 22.2 °F 30.59 in Calm     46% 0.00 in BKN
09:50 42.1 °F 21.7 °F 30.59 in Calm   1.0 mph 44% 0.00 in BKN
09:55 42.5 °F 21.0 °F 30.59 in Calm   1.0 mph 42% 0.00 in BKN
10:05 43.3 °F 20.6 °F 30.59 in Calm   2.0 mph 40% 0.00 in BKN
10:10 43.7 °F 20.9 °F 30.59 in Calm   2.0 mph 40% 0.00 in BKN
10:14 44.1 °F 21.3 °F 30.59 in Calm   2.0 mph 40% 0.00 in BKN
10:20 44.5 °F 21.7 °F 30.60 in SE 1.0 mph 4.0 mph 40% 0.00 in BKN
10:25 45.0 °F 21.5 °F 30.59 in ENE 1.0 mph 2.0 mph 39% 0.00 in BKN
10:35 46.1 °F 22.4 °F 30.60 in Calm   2.0 mph 39% 0.00 in BKN
10:40 46.5 °F 22.2 °F 30.60 in Calm   2.0 mph 38% 0.00 in BKN
10:45 46.9 °F 23.8 °F 30.60 in Calm   3.0 mph 40% 0.00 in BKN
10:50 47.5 °F 23.7 °F 30.60 in Calm   1.0 mph 39% 0.00 in BKN
10:55 47.7 °F 23.3 °F 30.60 in Calm   1.0 mph 38% 0.00 in BKN
11:04 48.7 °F 24.8 °F 30.60 in Calm   2.0 mph 39% 0.00 in BKN
11:10 49.1 °F 24.6 °F 30.60 in Calm   1.0 mph 38% 0.00 in BKN
11:20 50.0 °F 24.1 °F 30.60 in Calm   1.0 mph 36% 0.00 in BKN
11:25 49.9 °F 24.0 °F 30.60 in Calm   3.0 mph 36% 0.00 in BKN
11:35 50.0 °F 24.7 °F 30.60 in Calm   3.0 mph 37% 0.00 in BKN
11:40 50.1 °F 24.8 °F 30.59 in Calm   3.0 mph 37% 0.00 in BKN
11:45 50.4 °F 25.1 °F 30.59 in Calm   2.0 mph 37% 0.00 in BKN
11:50 51.0 °F 25.6 °F 30.59 in Calm   2.0 mph 37% 0.00 in BKN
11:55 51.3 °F 25.9 °F 30.58 in Calm   3.0 mph 37% 0.00 in BKN
12:05 52.3 °F 26.8 °F 30.58 in NE 1.0 mph 2.0 mph 37% 0.00 in BKN
12:10 52.6 °F 27.7 °F 30.58 in Calm   1.0 mph 38% 0.00 in BKN
12:15 52.9 °F 28.0 °F 30.57 in Calm   2.0 mph 38% 0.00 in BKN
12:20 53.2 °F 28.9 °F 30.57 in Calm   5.0 mph 39% 0.00 in BKN
12:25 53.8 °F 30.0 °F 30.57 in SSE 1.0 mph 2.0 mph 40% 0.00 in BKN
12:35 54.0 °F 29.6 °F 30.56 in South 2.0 mph 5.0 mph 39% 0.00 in BKN
12:40 54.4 °F 30.5 °F 30.55 in SE 1.0 mph 3.0 mph 40% 0.00 in BKN
12:45 55.0 °F 30.4 °F 30.56 in East 2.0 mph 5.0 mph 39% 0.00 in BKN
12:50 55.2 °F 30.6 °F 30.55 in Calm   3.0 mph 39% 0.00 in BKN
12:55 55.9 °F 31.3 °F 30.55 in NW 1.0 mph 5.0 mph 39% 0.00 in BKN
13:05 56.7 °F 32.0 °F 30.55 in ESE 1.0 mph 5.0 mph 39% 0.00 in FEW
13:10 56.8 °F 33.3 °F 30.55 in ESE 2.0 mph 5.0 mph 41% 0.00 in FEW
13:20 58.0 °F 32.5 °F 30.55 in ENE 1.0 mph 5.0 mph 38% 0.00 in FEW
13:25 58.2 °F 32.0 °F 30.54 in ENE 1.0 mph 5.0 mph 37% 0.00 in FEW
13:35 58.4 °F 32.2 °F 30.54 in ENE 1.0 mph 2.0 mph 37% 0.00 in FEW
13:40 58.3 °F 32.7 °F 30.54 in Calm   6.0 mph 38% 0.00 in FEW
13:45 58.6 °F 33.0 °F 30.54 in Calm   3.0 mph 38% 0.00 in FEW
13:50 58.2 °F 32.7 °F 30.53 in NNW 1.0 mph 5.0 mph 38% 0.00 in FEW
13:55 57.8 °F 33.0 °F 30.53 in Calm   3.0 mph 39% 0.00 in FEW
14:05 57.2 °F 33.1 °F 30.53 in Calm   5.0 mph 40% 0.00 in FEW
14:10 57.2 °F 34.3 °F 30.53 in East 2.0 mph 5.0 mph 42% 0.00 in FEW
14:15 57.1 °F 33.6 °F 30.53 in ENE 1.0 mph 5.0 mph 41% 0.00 in FEW
14:20 57.3 °F 34.4 °F 30.53 in Calm   2.0 mph 42% 0.00 in FEW
14:25 57.4 °F 34.5 °F 30.53 in Calm   2.0 mph 42% 0.00 in FEW
14:35 56.8 °F 33.9 °F 30.52 in ESE 2.0 mph 3.0 mph 42% 0.00 in FEW
14:40 56.9 °F 34.0 °F 30.52 in Calm   1.0 mph 42% 0.00 in FEW
14:49 57.2 °F 34.3 °F 30.51 in Calm   2.0 mph 42% 0.00 in FEW
14:55 57.4 °F 33.9 °F 30.52 in Calm   3.0 mph 41% 0.00 in FEW
15:05 57.3 °F 35.0 °F 30.52 in Calm   5.0 mph 43% 0.00 in FEW
15:10 57.6 °F 35.2 °F 30.52 in Calm   1.0 mph 43% 0.00 in FEW
15:15 57.6 °F 34.7 °F 30.52 in WNW 1.0 mph 5.0 mph 42% 0.00 in FEW
15:20 57.5 °F 35.1 °F 30.51 in Calm   5.0 mph 43% 0.00 in FEW
15:25 57.4 °F 35.1 °F 30.51 in Calm   5.0 mph 43% 0.00 in FEW
15:35 57.4 °F 35.6 °F 30.51 in Calm   3.0 mph 44% 0.00 in FEW
15:40 57.5 °F 36.3 °F 30.51 in NNE 1.0 mph 3.0 mph 45% 0.00 in FEW
15:45 57.5 °F 35.7 °F 30.51 in Calm   3.0 mph 44% 0.00 in FEW
15:55 57.8 °F 36.0 °F 30.51 in Calm   1.0 mph 44% 0.00 in FEW
16:05 57.7 °F 36.5 °F 30.51 in Calm   5.0 mph 45% 0.00 in FEW
16:10 57.6 °F 37.0 °F 30.51 in Calm   1.0 mph 46% 0.00 in FEW
16:20 57.5 °F 36.9 °F 30.51 in Calm   5.0 mph 46% 0.00 in FEW
16:35 58.4 °F 37.7 °F 30.52 in Calm   1.0 mph 46% 0.00 in FEW
16:40 58.4 °F 37.7 °F 30.52 in Calm   1.0 mph 46% 0.00 in FEW
16:45 58.5 °F 37.2 °F 30.52 in Calm   1.0 mph 45% 0.00 in FEW
16:50 58.3 °F 37.1 °F 30.52 in Calm   2.0 mph 45% 0.00 in FEW
16:55 57.9 °F 37.3 °F 30.52 in Calm   2.0 mph 46% 0.00 in FEW
17:05 57.2 °F 37.7 °F 30.52 in Calm   1.0 mph 48% 0.00 in CLR
17:10 57.0 °F 37.5 °F 30.52 in Calm   1.0 mph 48% 0.00 in CLR
17:15 56.7 °F 37.7 °F 30.52 in Calm     49% 0.00 in CLR
17:20 56.2 °F 37.8 °F 30.52 in Calm     50% 0.00 in CLR
17:25 55.5 °F 38.2 °F 30.52 in Calm   1.0 mph 52% 0.00 in CLR
17:35 54.7 °F 37.9 °F 30.52 in Calm   1.0 mph 53% 0.00 in CLR
17:40 54.5 °F 38.2 °F 30.52 in Calm   1.0 mph 54% 0.00 in CLR
17:50 54.0 °F 38.2 °F 30.52 in Calm     55% 0.00 in CLR
17:55 53.8 °F 38.0 °F 30.52 in Calm     55% 0.00 in CLR
18:05 53.1 °F 37.8 °F 30.52 in Calm     56% 0.00 in CLR
18:10 52.6 °F 37.7 °F 30.53 in Calm     57% 0.00 in CLR
18:15 52.3 °F 38.0 °F 30.53 in Calm     58% 0.00 in CLR
18:25 51.6 °F 37.7 °F 30.53 in Calm     59% 0.00 in CLR
18:35 50.8 °F 37.8 °F 30.53 in Calm     61% 0.00 in CLR
18:40 50.9 °F 37.9 °F 30.53 in Calm   1.0 mph 61% 0.00 in CLR
18:45 50.6 °F 37.6 °F 30.53 in Calm     61% 0.00 in CLR
18:50 50.1 °F 37.5 °F 30.53 in Calm     62% 0.00 in CLR
18:55 49.5 °F 37.4 °F 30.54 in Calm     63% 0.00 in CLR
19:05 48.6 °F 37.3 °F 30.54 in Calm     65% 0.00 in CLR
19:10 48.5 °F 37.7 °F 30.54 in Calm   1.0 mph 66% 0.00 in CLR
19:19 47.9 °F 37.5 °F 30.54 in Calm     67% 0.00 in CLR
19:25 47.6 °F 37.2 °F 30.54 in Calm     67% 0.00 in CLR
19:35 47.2 °F 37.6 °F 30.55 in Calm     69% 0.00 in CLR
19:40 47.5 °F 37.8 °F 30.55 in Calm     69% 0.00 in CLR
19:45 47.6 °F 37.6 °F 30.55 in Calm     68% 0.00 in CLR
19:55 46.9 °F 37.3 °F 30.55 in Calm     69% 0.00 in CLR
20:05 46.4 °F 37.5 °F 30.55 in Calm     71% 0.00 in CLR
20:10 46.4 °F 37.5 °F 30.55 in Calm     71% 0.00 in CLR
20:15 46.3 °F 37.4 °F 30.55 in Calm     71% 0.00 in CLR
20:25 45.8 °F 37.2 °F 30.55 in Calm     72% 0.00 in CLR
20:35 45.3 °F 37.1 °F 30.55 in Calm     73% 0.00 in CLR
20:40 45.1 °F 37.0 °F 30.55 in Calm     73% 0.00 in CLR
20:45 44.9 °F 37.2 °F 30.55 in Calm     74% 0.00 in CLR
20:50 44.8 °F 37.0 °F 30.55 in Calm     74% 0.00 in CLR
20:55 44.7 °F 36.9 °F 30.55 in Calm     74% 0.00 in CLR
21:05 44.5 °F 37.0 °F 30.55 in Calm     75% 0.00 in CLR
21:10 44.3 °F 36.9 °F 30.55 in Calm     75% 0.00 in CLR
21:20 44.3 °F 37.2 °F 30.56 in Calm     76% 0.00 in CLR
21:25 44.3 °F 37.2 °F 30.56 in Calm     76% 0.00 in CLR
21:35 44.2 °F 37.1 °F 30.55 in Calm     76% 0.00 in CLR
21:40 44.2 °F 37.1 °F 30.55 in Calm     76% 0.00 in CLR
21:50 43.9 °F 36.8 °F 30.55 in Calm     76% 0.00 in CLR
Piedmont Bend
Compliments of Weather Underground - 2 mb